Time;durP1;ratioP1;P1;durP2;ratioP2;P2;SDS_P1;SDS_P2;PMS_P1;PMS_P2;Temp;Humidity;BMP_temperature;BMP_pressure;BME280_temperature;BME280_humidity;BME280_pressure;Samples;Min_cycle;Max_cycle;Signal;HPM_P1;HPM_P2
2023/10/22 00:02:25;;;;;;;6.93;2.10;;;13.40;99.90;;;;;;5034291;28;20307;-62
2023/10/22 00:04:51;;;;;;;5.85;2.33;;;13.40;99.90;;;;;;5034073;28;20270;-62
2023/10/22 00:07:18;;;;;;;9.35;2.17;;;13.50;99.90;;;;;;5034323;28;20626;-63
2023/10/22 00:09:44;;;;;;;5.05;2.00;;;13.40;99.90;;;;;;5034082;28;20313;-60
2023/10/22 00:12:11;;;;;;;5.53;1.75;;;13.50;99.90;;;;;;5034141;28;20203;-64
2023/10/22 00:14:37;;;;;;;8.70;2.00;;;13.50;99.90;;;;;;5016642;28;20592;-64
2023/10/22 00:17:03;;;;;;;5.97;1.50;;;13.50;99.90;;;;;;5034396;28;20188;-61
2023/10/22 00:19:45;;;;;;;5.28;1.80;;;13.60;99.90;;;;;;5018564;28;20186;-59
2023/10/22 00:22:13;;;;;;;8.35;2.10;;;13.60;99.90;;;;;;5015750;28;20204;-63
2023/10/22 00:24:41;;;;;;;6.85;1.98;;;13.60;99.90;;;;;;5032504;28;20180;-60
2023/10/22 00:27:07;;;;;;;8.43;2.00;;;13.70;99.90;;;;;;5033354;28;20255;-62
2023/10/22 00:29:33;;;;;;;7.30;1.92;;;13.70;99.90;;;;;;5033326;28;20220;-60
2023/10/22 00:31:59;;;;;;;5.47;1.80;;;13.70;99.90;;;;;;5031954;28;20176;-63
2023/10/22 00:34:25;;;;;;;7.80;2.17;;;13.70;99.90;;;;;;5015831;28;20192;-66
2023/10/22 00:36:51;;;;;;;7.70;1.85;;;13.80;99.90;;;;;;5033439;28;20235;-61
2023/10/22 00:39:16;;;;;;;7.28;1.70;;;13.80;99.90;;;;;;5033647;28;20215;-61
2023/10/22 00:41:42;;;;;;;5.88;1.70;;;13.80;99.90;;;;;;5015940;28;20180;-61
2023/10/22 00:44:08;;;;;;;6.03;1.80;;;13.80;99.90;;;;;;5033520;28;20580;-61
2023/10/22 00:46:35;;;;;;;3.20;1.50;;;13.80;99.90;;;;;;5033551;28;20183;-60
2023/10/22 00:49:01;;;;;;;4.80;1.60;;;13.80;99.90;;;;;;5033589;28;20211;-60
2023/10/22 00:51:28;;;;;;;10.75;1.90;;;13.80;99.90;;;;;;5015824;28;20253;-64
2023/10/22 00:53:54;;;;;;;4.40;1.63;;;13.80;99.90;;;;;;5015241;28;20275;-61
2023/10/22 00:56:22;;;;;;;7.03;1.73;;;13.80;99.90;;;;;;5033238;28;20220;-63
2023/10/22 00:58:49;;;;;;;9.25;1.50;;;13.90;99.90;;;;;;5033041;28;20547;-61
2023/10/22 01:01:16;;;;;;;4.25;1.85;;;13.90;99.90;;;;;;5015366;28;20587;-62
2023/10/22 01:03:42;;;;;;;5.20;1.60;;;13.90;99.90;;;;;;5031879;28;20662;-64
2023/10/22 01:06:08;;;;;;;8.15;2.10;;;13.90;99.90;;;;;;5015353;28;20180;-60
2023/10/22 01:08:35;;;;;;;5.55;1.50;;;13.90;99.90;;;;;;5015059;28;20290;-60
2023/10/22 01:11:09;;;;;;;6.30;1.80;;;13.90;99.90;;;;;;5032747;28;20179;-61
2023/10/22 01:13:35;;;;;;;5.13;1.63;;;13.90;99.90;;;;;;4998870;28;20234;-61
2023/10/22 01:16:02;;;;;;;7.00;1.80;;;13.90;99.90;;;;;;5015148;28;20273;-62
2023/10/22 01:18:28;;;;;;;6.65;1.67;;;13.90;99.90;;;;;;5031959;28;20183;-63
2023/10/22 01:20:54;;;;;;;4.43;1.30;;;13.90;99.90;;;;;;5031234;28;20184;-61
2023/10/22 01:23:21;;;;;;;6.18;1.52;;;13.90;99.90;;;;;;5032543;28;20188;-60
2023/10/22 01:25:47;;;;;;;4.53;1.50;;;13.90;99.90;;;;;;4998611;28;20180;-63
2023/10/22 01:28:13;;;;;;;5.47;1.65;;;13.90;99.90;;;;;;5032226;28;20215;-60
2023/10/22 01:30:39;;;;;;;5.25;1.38;;;13.90;99.90;;;;;;5031536;28;20176;-61
2023/10/22 01:33:06;;;;;;;4.97;1.40;;;13.90;99.90;;;;;;5015190;28;20183;-65
2023/10/22 01:35:33;;;;;;;4.82;1.77;;;13.90;99.90;;;;;;5014733;28;20687;-60
2023/10/22 01:37:59;;;;;;;4.93;1.60;;;13.90;99.90;;;;;;5032181;28;20176;-59
2023/10/22 01:40:25;;;;;;;3.80;1.23;;;13.90;99.90;;;;;;5014845;28;20636;-60
2023/10/22 01:42:51;;;;;;;7.40;1.63;;;13.90;99.90;;;;;;5014401;28;20190;-60
2023/10/22 01:45:19;;;;;;;5.15;1.48;;;13.90;99.90;;;;;;5032106;28;20176;-66
2023/10/22 01:47:45;;;;;;;6.18;1.40;;;13.90;99.90;;;;;;5032499;28;20180;-60
2023/10/22 01:50:12;;;;;;;4.90;1.35;;;13.80;99.90;;;;;;5032230;28;20219;-60
2023/10/22 01:52:38;;;;;;;9.70;1.50;;;13.80;99.90;;;;;;5031849;28;20184;-60
2023/10/22 01:55:04;;;;;;;6.32;1.48;;;13.80;99.90;;;;;;5014741;28;20186;-59
2023/10/22 01:57:30;;;;;;;6.55;1.42;;;13.70;99.90;;;;;;5032384;28;20172;-60
2023/10/22 01:59:56;;;;;;;9.07;1.60;;;13.70;99.90;;;;;;5014436;28;20658;-63
2023/10/22 02:02:22;;;;;;;4.82;1.70;;;13.70;99.90;;;;;;5014866;28;20227;-65
2023/10/22 02:04:48;;;;;;;6.93;1.60;;;13.60;99.90;;;;;;5014474;28;20179;-61
2023/10/22 02:07:14;;;;;;;7.75;1.67;;;13.60;99.90;;;;;;5014414;28;20184;-60
2023/10/22 02:09:40;;;;;;;3.97;1.67;;;13.50;99.90;;;;;;5014143;28;20218;-61
2023/10/22 02:12:08;;;;;;;8.48;1.70;;;13.50;99.90;;;;;;5030968;28;20257;-63
2023/10/22 02:14:34;;;;;;;4.75;1.77;;;13.50;99.90;;;;;;5013944;28;20711;-60
2023/10/22 02:17:01;;;;;;;5.78;1.63;;;13.50;99.90;;;;;;5031541;28;20626;-62
2023/10/22 02:19:27;;;;;;;5.50;1.50;;;13.40;99.90;;;;;;5016633;28;20183;-63
2023/10/22 02:21:53;;;;;;;7.63;1.90;;;13.30;99.90;;;;;;5035864;28;20274;-64
2023/10/22 02:24:19;;;;;;;4.82;1.85;;;13.30;99.90;;;;;;5035579;28;20182;-60
2023/10/22 02:26:46;;;;;;;6.60;1.80;;;13.30;99.90;;;;;;5035896;28;20183;-61
2023/10/22 02:29:13;;;;;;;3.63;1.75;;;13.20;99.90;;;;;;5017868;28;20265;-61
2023/10/22 02:31:42;;;;;;;3.85;1.65;;;13.20;99.90;;;;;;5035645;28;20180;-59
2023/10/22 02:34:09;;;;;;;9.13;1.60;;;13.20;99.90;;;;;;5017693;28;20251;-61
2023/10/22 02:36:35;;;;;;;6.07;2.10;;;13.10;99.90;;;;;;5035782;28;20222;-60
2023/10/22 02:39:04;;;;;;;7.00;2.00;;;13.10;99.90;;;;;;5018156;28;20179;-63
2023/10/22 02:41:30;;;;;;;8.07;2.00;;;13.10;99.90;;;;;;5036307;28;20260;-58
2023/10/22 02:43:57;;;;;;;5.00;1.85;;;13.10;99.90;;;;;;5017973;28;20186;-63
2023/10/22 02:46:24;;;;;;;8.82;2.35;;;13.10;99.90;;;;;;5035385;28;20207;-62
2023/10/22 02:48:49;;;;;;;7.07;2.38;;;13.10;99.90;;;;;;5035381;28;20668;-65
2023/10/22 02:51:16;;;;;;;10.50;2.55;;;13.00;99.90;;;;;;5017650;28;20188;-61
2023/10/22 02:53:43;;;;;;;9.45;2.28;;;13.00;99.90;;;;;;5017640;28;20192;-62
2023/10/22 02:56:09;;;;;;;5.43;2.78;;;13.00;99.90;;;;;;5017886;28;20180;-60
2023/10/22 02:58:38;;;;;;;5.72;2.75;;;13.00;99.90;;;;;;5035579;28;20176;-60
2023/10/22 03:01:09;;;;;;;7.00;2.53;;;12.90;99.90;;;;;;5035452;28;20232;-65
2023/10/22 03:03:39;;;;;;;5.75;2.30;;;12.90;99.90;;;;;;5001134;28;20282;-61
2023/10/22 03:06:10;;;;;;;6.85;2.55;;;12.90;99.90;;;;;;5017423;28;20591;-62
2023/10/22 03:08:41;;;;;;;6.95;2.33;;;12.90;99.90;;;;;;5017898;28;20289;-60
2023/10/22 03:11:15;;;;;;;3.20;2.25;;;12.90;99.90;;;;;;5017639;28;20176;-60
2023/10/22 03:13:41;;;;;;;5.90;2.20;;;12.80;99.90;;;;;;5035158;28;20243;-63
2023/10/22 03:16:08;;;;;;;5.63;2.40;;;12.80;99.90;;;;;;5035092;28;20640;-62
2023/10/22 03:18:34;;;;;;;6.43;2.20;;;12.80;99.90;;;;;;5017423;28;20608;-61
2023/10/22 03:21:00;;;;;;;5.93;2.38;;;12.80;99.90;;;;;;5017165;28;20184;-63
2023/10/22 03:23:26;;;;;;;5.45;2.33;;;12.80;99.90;;;;;;5034694;28;20180;-60
2023/10/22 03:25:52;;;;;;;4.47;2.60;;;12.70;99.90;;;;;;5017304;28;20588;-60
2023/10/22 03:28:18;;;;;;;6.07;2.58;;;12.70;99.90;;;;;;5034762;28;20235;-62
2023/10/22 03:30:43;;;;;;;7.65;2.17;;;12.70;99.90;;;;;;5032393;28;20717;-62
2023/10/22 03:33:10;;;;;;;4.90;2.50;;;12.70;99.90;;;;;;5016757;28;20180;-61
2023/10/22 03:35:36;;;;;;;7.38;2.40;;;12.70;99.90;;;;;;5016988;28;20645;-63
2023/10/22 03:38:03;;;;;;;5.97;2.75;;;12.70;99.90;;;;;;5016895;28;20588;-60
2023/10/22 03:40:31;;;;;;;7.22;2.90;;;12.70;99.90;;;;;;5034793;28;20184;-63
2023/10/22 03:42:57;;;;;;;4.82;2.40;;;12.70;99.90;;;;;;5034735;28;20184;-59
2023/10/22 03:45:23;;;;;;;8.13;2.90;;;12.70;99.90;;;;;;5034412;28;20184;-63
2023/10/22 03:47:49;;;;;;;6.45;2.03;;;12.70;99.90;;;;;;5016918;28;20182;-62
2023/10/22 03:50:15;;;;;;;7.60;2.38;;;12.70;99.90;;;;;;4999997;28;20219;-60
2023/10/22 03:52:41;;;;;;;7.15;2.60;;;12.70;99.90;;;;;;5000733;28;20273;-65
2023/10/22 03:55:08;;;;;;;5.32;2.13;;;12.70;99.90;;;;;;5034650;28;20187;-60
2023/10/22 03:57:34;;;;;;;4.28;2.20;;;12.70;99.90;;;;;;5034252;28;20596;-63
2023/10/22 04:00:00;;;;;;;4.78;2.15;;;12.70;99.90;;;;;;5034356;28;20180;-62
2023/10/22 04:02:26;;;;;;;6.60;2.40;;;12.70;99.90;;;;;;5016009;28;20790;-62
2023/10/22 04:04:52;;;;;;;5.72;2.35;;;12.80;99.90;;;;;;5033997;28;20194;-60
2023/10/22 04:07:18;;;;;;;6.15;2.30;;;12.80;99.90;;;;;;5016564;28;20184;-62
2023/10/22 04:09:43;;;;;;;4.15;2.10;;;12.80;99.90;;;;;;5033777;28;20212;-60
2023/10/22 04:12:10;;;;;;;5.30;2.38;;;12.80;99.90;;;;;;5034061;28;20184;-60
2023/10/22 04:14:36;;;;;;;4.28;2.08;;;12.80;99.90;;;;;;5034314;28;20261;-62
2023/10/22 04:17:02;;;;;;;5.18;2.10;;;12.80;99.90;;;;;;5034106;28;20188;-63
2023/10/22 04:19:28;;;;;;;4.75;2.20;;;12.80;99.90;;;;;;5033776;28;20616;-61
2023/10/22 04:21:54;;;;;;;4.70;2.10;;;12.80;99.90;;;;;;5034054;28;20207;-63
2023/10/22 04:24:20;;;;;;;6.18;2.22;;;12.80;99.90;;;;;;5034187;28;20282;-62
2023/10/22 04:26:46;;;;;;;8.52;2.17;;;12.80;99.90;;;;;;5032791;28;20585;-60
2023/10/22 04:29:12;;;;;;;4.25;2.25;;;12.80;99.90;;;;;;5034179;28;20216;-62
2023/10/22 04:31:37;;;;;;;4.53;2.42;;;12.80;99.90;;;;;;5033523;28;20218;-61
2023/10/22 04:34:03;;;;;;;5.35;2.00;;;12.80;99.90;;;;;;5033512;28;20196;-62
2023/10/22 04:36:29;;;;;;;4.93;1.75;;;12.80;99.90;;;;;;5033542;28;20291;-63
2023/10/22 04:38:55;;;;;;;3.97;1.90;;;12.80;99.90;;;;;;5033447;28;20640;-61
2023/10/22 04:41:21;;;;;;;4.50;2.10;;;12.80;99.90;;;;;;5032933;28;20207;-63
2023/10/22 04:43:47;;;;;;;5.40;2.00;;;12.80;99.90;;;;;;5016036;28;20255;-66
2023/10/22 04:46:13;;;;;;;4.25;1.80;;;12.80;99.90;;;;;;5015423;28;20176;-62
2023/10/22 04:48:39;;;;;;;5.03;2.03;;;12.80;99.90;;;;;;5033232;28;20288;-61
2023/10/22 04:51:07;;;;;;;2.55;1.98;;;12.80;99.90;;;;;;5032095;28;20206;-66
2023/10/22 04:53:36;;;;;;;4.40;2.03;;;12.80;99.90;;;;;;5033293;28;20180;-61
2023/10/22 04:56:04;;;;;;;5.50;1.85;;;12.80;99.90;;;;;;5033686;28;20266;-65
2023/10/22 04:58:32;;;;;;;2.40;1.80;;;12.80;99.90;;;;;;5033561;28;20226;-61
2023/10/22 05:00:58;;;;;;;3.05;1.80;;;12.80;99.90;;;;;;5033399;28;20263;-60
2023/10/22 05:03:24;;;;;;;4.43;1.83;;;12.80;99.90;;;;;;5032990;28;20184;-61
2023/10/22 05:05:50;;;;;;;3.53;1.65;;;12.80;99.90;;;;;;5015807;28;20179;-62
2023/10/22 05:08:16;;;;;;;2.05;1.70;;;12.80;99.90;;;;;;5033367;28;20221;-62
2023/10/22 05:10:42;;;;;;;2.72;1.73;;;12.80;99.90;;;;;;5032809;28;20191;-61
2023/10/22 05:13:09;;;;;;;1.95;1.70;;;12.90;99.90;;;;;;5033257;28;20175;-66
2023/10/22 05:15:35;;;;;;;2.92;1.83;;;12.80;99.90;;;;;;5015385;28;20188;-61
2023/10/22 05:18:07;;;;;;;2.53;2.00;;;12.90;99.90;;;;;;5033077;28;20180;-63
2023/10/22 05:20:34;;;;;;;2.78;2.10;;;12.90;99.90;;;;;;5015068;28;20644;-65
2023/10/22 05:23:03;;;;;;;5.05;2.20;;;12.90;99.90;;;;;;5033131;28;20654;-61
2023/10/22 05:25:29;;;;;;;3.97;2.42;;;12.90;99.90;;;;;;5015112;28;20183;-63
2023/10/22 05:27:55;;;;;;;3.17;2.50;;;12.90;99.90;;;;;;5033036;28;20180;-61
2023/10/22 05:30:21;;;;;;;3.55;2.78;;;12.90;99.90;;;;;;5032357;28;20257;-59
2023/10/22 05:32:47;;;;;;;5.20;3.22;;;12.90;99.90;;;;;;5032332;28;20271;-59
2023/10/22 05:35:13;;;;;;;5.85;3.70;;;12.90;99.90;;;;;;5033015;28;20180;-61
2023/10/22 05:37:42;;;;;;;5.05;4.30;;;12.90;99.90;;;;;;5032453;28;20191;-60
2023/10/22 05:40:11;;;;;;;5.68;4.18;;;12.90;99.90;;;;;;5014705;28;20188;-62
2023/10/22 05:42:38;;;;;;;7.82;4.53;;;13.00;99.90;;;;;;5032273;28;20279;-59
2023/10/22 05:45:04;;;;;;;6.38;5.60;;;13.00;99.90;;;;;;5032470;28;20183;-63
2023/10/22 05:47:32;;;;;;;6.70;5.40;;;13.00;99.90;;;;;;5032716;28;20640;-58
2023/10/22 05:50:02;;;;;;;6.65;5.32;;;13.00;99.90;;;;;;5032076;28;20211;-64
2023/10/22 05:52:28;;;;;;;6.13;5.53;;;13.00;99.90;;;;;;5032018;28;20184;-60
2023/10/22 05:54:54;;;;;;;8.40;5.90;;;13.00;99.90;;;;;;5014052;28;20194;-60
2023/10/22 05:57:22;;;;;;;6.80;6.03;;;13.10;99.90;;;;;;5032614;28;20229;-62
2023/10/22 05:59:49;;;;;;;7.43;6.20;;;13.10;99.90;;;;;;5032032;28;20215;-59
2023/10/22 06:02:15;;;;;;;7.05;6.30;;;13.10;99.90;;;;;;5032713;28;20614;-63
2023/10/22 06:04:41;;;;;;;7.32;6.20;;;13.10;99.90;;;;;;5032089;28;20702;-59
2023/10/22 06:07:08;;;;;;;10.05;6.18;;;13.10;99.90;;;;;;5031825;28;20270;-61
2023/10/22 06:09:37;;;;;;;6.10;5.43;;;13.10;99.90;;;;;;5031876;28;20679;-61
2023/10/22 06:12:03;;;;;;;7.32;5.25;;;13.20;99.90;;;;;;5032438;28;20271;-60
2023/10/22 06:14:29;;;;;;;6.05;5.15;;;13.20;99.90;;;;;;5032077;28;20587;-64
2023/10/22 06:16:55;;;;;;;4.40;4.00;;;13.20;99.90;;;;;;5031872;28;20179;-60
2023/10/22 06:19:21;;;;;;;5.53;3.97;;;13.20;99.90;;;;;;5032260;28;20598;-63
2023/10/22 06:21:47;;;;;;;1.90;1.80;;;13.20;99.90;;;;;;4998489;28;20234;-58
2023/10/22 06:24:13;;;;;;;3.47;1.63;;;13.20;99.90;;;;;;5032444;28;20215;-62
2023/10/22 06:26:40;;;;;;;2.10;1.10;;;13.20;99.90;;;;;;5031967;28;20188;-56
2023/10/22 06:29:06;;;;;;;3.15;1.60;;;13.20;99.90;;;;;;4997660;28;20212;-61
2023/10/22 06:31:31;;;;;;;11.02;1.95;;;13.00;99.90;;;;;;5032278;28;20204;-61
2023/10/22 06:33:58;;;;;;;4.95;2.35;;;12.90;99.90;;;;;;5031578;28;20180;-60
2023/10/22 06:36:24;;;;;;;5.05;2.22;;;12.90;99.90;;;;;;5031972;28;20180;-59
2023/10/22 06:38:50;;;;;;;4.35;2.20;;;12.70;99.90;;;;;;5031370;28;20199;-57
2023/10/22 06:41:24;;;;;;;5.18;2.30;;;12.60;99.90;;;;;;5031399;28;20238;-59
2023/10/22 06:43:50;;;;;;;5.68;2.30;;;12.60;99.90;;;;;;5031433;28;20190;-57
2023/10/22 06:46:17;;;;;;;5.97;2.90;;;12.50;99.90;;;;;;5031701;28;20231;-55
2023/10/22 06:48:43;;;;;;;8.07;3.30;;;12.40;99.90;;;;;;5031781;28;20221;-56
2023/10/22 06:51:12;;;;;;;7.32;2.40;;;12.40;99.90;;;;;;5030630;28;20184;-66
2023/10/22 06:53:39;;;;;;;6.78;2.28;;;12.40;99.90;;;;;;5031736;28;20194;-64
2023/10/22 06:56:07;;;;;;;8.23;2.20;;;12.40;99.90;;;;;;5031652;28;20192;-62
2023/10/22 06:58:34;;;;;;;4.45;1.92;;;12.30;99.90;;;;;;5031556;28;20188;-59
2023/10/22 07:01:07;;;;;;;4.22;2.28;;;12.30;99.90;;;;;;5031625;28;20659;-63
2023/10/22 07:03:39;;;;;;;5.53;1.98;;;12.30;99.90;;;;;;5031409;28;20237;-58
2023/10/22 07:06:05;;;;;;;5.22;1.88;;;12.20;99.90;;;;;;5035199;28;20222;-58
2023/10/22 07:08:32;;;;;;;7.75;2.40;;;12.20;99.90;;;;;;5035251;28;20219;-57
2023/10/22 07:10:58;;;;;;;6.75;2.38;;;12.20;99.90;;;;;;5035389;28;20180;-60
2023/10/22 07:13:24;;;;;;;12.02;2.35;;;12.20;99.90;;;;;;5034899;28;20233;-60
2023/10/22 07:15:53;;;;;;;8.95;2.50;;;12.20;99.90;;;;;;5035145;28;20180;-62
2023/10/22 07:18:20;;;;;;;8.30;2.85;;;12.20;99.90;;;;;;5035479;28;20186;-62
2023/10/22 07:20:47;;;;;;;10.38;2.85;;;12.20;99.90;;;;;;5001122;28;20553;-59
2023/10/22 07:23:13;;;;;;;6.47;2.55;;;12.30;99.90;;;;;;5034950;28;20207;-61
2023/10/22 07:25:39;;;;;;;10.45;3.03;;;12.30;99.90;;;;;;5034768;28;20183;-59
2023/10/22 07:28:05;;;;;;;15.15;3.17;;;12.30;99.90;;;;;;5034890;28;20172;-59
2023/10/22 07:30:32;;;;;;;13.65;3.40;;;12.30;99.90;;;;;;5035268;28;20295;-59
2023/10/22 07:32:58;;;;;;;10.35;3.00;;;12.30;99.90;;;;;;5034993;28;20265;-61
2023/10/22 07:35:24;;;;;;;7.43;2.95;;;12.30;99.90;;;;;;5034830;28;20199;-58
2023/10/22 07:37:50;;;;;;;8.38;2.95;;;12.30;99.90;;;;;;5034794;28;20180;-59
2023/10/22 07:40:20;;;;;;;11.10;3.15;;;12.30;99.90;;;;;;5017232;28;20206;-58
2023/10/22 07:42:48;;;;;;;7.97;3.03;;;12.30;99.90;;;;;;5034822;28;20165;-62
2023/10/22 07:45:14;;;;;;;11.55;3.28;;;12.30;99.90;;;;;;5017067;28;20191;-60
2023/10/22 07:47:40;;;;;;;9.07;3.22;;;12.30;99.90;;;;;;5034690;28;20168;-61
2023/10/22 07:50:07;;;;;;;4.93;2.80;;;12.30;99.90;;;;;;5034847;28;20216;-58
2023/10/22 07:52:34;;;;;;;9.00;3.00;;;12.30;99.90;;;;;;5034413;28;20236;-55
2023/10/22 07:55:00;;;;;;;9.45;2.70;;;12.20;99.90;;;;;;5034049;28;20267;-58
2023/10/22 07:57:27;;;;;;;7.88;2.83;;;12.30;99.90;;;;;;5034433;28;20214;-56
2023/10/22 07:59:55;;;;;;;8.55;2.90;;;12.30;99.90;;;;;;5016813;28;20689;-57
2023/10/22 08:02:21;;;;;;;6.88;3.58;;;12.30;99.90;;;;;;5033973;28;20262;-56
2023/10/22 08:04:47;;;;;;;11.30;3.47;;;12.30;99.90;;;;;;5034475;28;20203;-60
2023/10/22 08:07:13;;;;;;;12.32;4.20;;;12.30;99.90;;;;;;5034314;28;20535;-58
2023/10/22 08:09:39;;;;;;;15.15;4.57;;;12.30;99.90;;;;;;5034677;28;20307;-60
2023/10/22 08:12:05;;;;;;;12.98;4.50;;;12.30;99.90;;;;;;5034270;28;20610;-63
2023/10/22 08:14:31;;;;;;;15.00;4.82;;;12.30;99.90;;;;;;5016498;28;20636;-66
2023/10/22 08:16:58;;;;;;;11.55;4.75;;;12.30;99.90;;;;;;5033620;28;20545;-66
2023/10/22 08:19:24;;;;;;;17.10;4.93;;;12.40;99.90;;;;;;5016613;28;20234;-63
2023/10/22 08:21:50;;;;;;;10.40;4.50;;;12.50;99.90;;;;;;5034188;28;20176;-66
2023/10/22 08:24:16;;;;;;;9.07;4.20;;;12.50;99.90;;;;;;5000163;28;20222;-61
2023/10/22 08:26:42;;;;;;;11.68;4.72;;;12.50;99.90;;;;;;5034315;28;20180;-63
2023/10/22 08:29:08;;;;;;;10.82;4.00;;;12.50;99.90;;;;;;5033760;28;20212;-64
2023/10/22 08:31:34;;;;;;;10.98;3.70;;;12.50;99.90;;;;;;5034519;28;20188;-65
2023/10/22 08:34:01;;;;;;;14.25;3.97;;;12.60;99.90;;;;;;5033625;28;20176;-62
2023/10/22 08:36:27;;;;;;;9.85;3.85;;;12.60;99.90;;;;;;5032755;28;20180;-63
2023/10/22 08:38:53;;;;;;;11.65;3.65;;;12.70;99.90;;;;;;5034282;28;20184;-64
2023/10/22 08:41:25;;;;;;;10.18;3.92;;;12.70;99.90;;;;;;5033643;28;20183;-64
2023/10/22 08:43:52;;;;;;;8.70;3.58;;;12.80;99.90;;;;;;5033425;28;20177;-64
2023/10/22 08:46:18;;;;;;;8.88;3.40;;;12.80;99.90;;;;;;5032549;28;20242;-64
2023/10/22 08:48:44;;;;;;;8.65;3.70;;;12.90;99.90;;;;;;5033712;28;20214;-67
2023/10/22 08:51:10;;;;;;;7.70;3.10;;;12.90;99.90;;;;;;5034024;28;20180;-68
2023/10/22 08:53:37;;;;;;;7.55;3.08;;;13.00;99.90;;;;;;5033537;28;20172;-66
2023/10/22 08:56:04;;;;;;;11.48;3.47;;;13.00;99.90;;;;;;5016439;28;20198;-64
2023/10/22 08:58:31;;;;;;;7.88;3.08;;;13.10;99.90;;;;;;5033095;28;20724;-64
2023/10/22 09:00:57;;;;;;;10.95;3.42;;;13.10;99.90;;;;;;5032982;28;20240;-63
2023/10/22 09:03:30;;;;;;;8.70;2.90;;;13.10;99.90;;;;;;5032892;28;20187;-65
2023/10/22 09:05:56;;;;;;;8.40;2.60;;;13.20;99.90;;;;;;5032959;28;20180;-65
2023/10/22 09:08:41;;;;;;;8.00;3.60;;;13.20;99.90;;;;;;5032983;28;20183;-64
2023/10/22 09:11:16;;;;;;;8.10;2.70;;;13.30;99.90;;;;;;5015704;28;20176;-63
2023/10/22 09:13:43;;;;;;;5.88;2.25;;;13.30;99.90;;;;;;5033609;28;20172;-64
2023/10/22 09:16:10;;;;;;;7.88;2.50;;;13.30;99.90;;;;;;5033786;28;20267;-63
2023/10/22 09:18:44;;;;;;;9.15;1.90;;;13.40;99.90;;;;;;5033159;28;20183;-68
2023/10/22 09:21:10;;;;;;;7.38;2.28;;;13.40;99.90;;;;;;5033189;28;20194;-63
2023/10/22 09:23:36;;;;;;;12.25;2.47;;;13.40;99.90;;;;;;5032907;28;20184;-68
2023/10/22 09:26:02;;;;;;;5.38;2.10;;;13.50;99.90;;;;;;5015672;28;20509;-63
2023/10/22 09:28:30;;;;;;;6.45;2.20;;;13.50;99.90;;;;;;5032707;28;20180;-62
2023/10/22 09:30:58;;;;;;;5.20;1.90;;;13.60;99.90;;;;;;5032709;28;20179;-65
2023/10/22 09:33:34;;;;;;;5.88;2.22;;;13.60;99.90;;;;;;5032253;28;20207;-63
2023/10/22 09:36:05;;;;;;;9.07;1.95;;;13.70;99.90;;;;;;5032247;28;20178;-64
2023/10/22 09:38:47;;;;;;;8.15;1.77;;;13.80;99.90;;;;;;5014693;28;20684;-65
2023/10/22 09:41:26;;;;;;;8.98;1.65;;;13.80;99.90;;;;;;5032753;28;20179;-63
2023/10/22 09:43:52;;;;;;;5.03;1.63;;;13.80;99.90;;;;;;5032381;28;20171;-64
2023/10/22 09:46:19;;;;;;;5.15;1.45;;;13.90;99.90;;;;;;5030796;28;20195;-65
2023/10/22 09:48:48;;;;;;;4.80;1.58;;;13.90;99.90;;;;;;5031767;28;20223;-63
2023/10/22 09:51:15;;;;;;;6.93;1.35;;;14.00;99.90;;;;;;5031899;28;20175;-67
2023/10/22 09:53:52;;;;;;;3.80;1.33;;;14.10;99.90;;;;;;5030431;28;20180;-64
2023/10/22 09:56:20;;;;;;;5.65;1.92;;;14.10;99.90;;;;;;5031971;28;20172;-66
2023/10/22 09:58:48;;;;;;;5.93;2.63;;;14.10;99.90;;;;;;5014286;28;20183;-64
2023/10/22 10:01:15;;;;;;;4.75;1.30;;;14.20;99.90;;;;;;5031302;28;20333;-66
2023/10/22 10:03:42;;;;;;;2.08;1.20;;;14.10;99.90;;;;;;5031978;28;20218;-68
2023/10/22 10:06:09;;;;;;;4.85;1.23;;;14.10;99.90;;;;;;5014292;28;20180;-63
2023/10/22 10:08:38;;;;;;;5.82;1.75;;;14.10;99.90;;;;;;5030895;28;20291;-62
2023/10/22 10:11:09;;;;;;;8.30;1.50;;;14.10;99.90;;;;;;5031118;28;20176;-63
2023/10/22 10:13:35;;;;;;;6.65;1.92;;;14.10;99.90;;;;;;5031417;28;20267;-66
2023/10/22 10:16:06;;;;;;;4.07;1.42;;;14.10;99.90;;;;;;5031580;28;20172;-66
2023/10/22 10:19:01;;;;;;;4.13;1.65;;;14.10;99.90;;;;;;5030999;28;20171;-65
2023/10/22 10:21:38;;;;;;;4.05;1.33;;;14.10;99.90;;;;;;5030831;28;20214;-66
2023/10/22 10:24:26;;;;;;;3.80;1.38;;;14.20;99.90;;;;;;5031327;28;20163;-63
2023/10/22 10:27:12;;;;;;;3.60;1.25;;;14.20;99.90;;;;;;5031872;28;20160;-65
2023/10/22 10:29:39;;;;;;;6.13;1.40;;;14.20;99.90;;;;;;5031220;28;20225;-68
2023/10/22 10:32:13;;;;;;;5.80;1.30;;;14.30;99.90;;;;;;5031344;28;20183;-62
2023/10/22 10:34:41;;;;;;;3.80;1.23;;;14.30;99.90;;;;;;5031276;28;20186;-62
2023/10/22 10:37:18;;;;;;;3.22;1.27;;;14.30;99.90;;;;;;5013464;28;20179;-65
2023/10/22 10:39:48;;;;;;;3.85;1.40;;;14.30;99.90;;;;;;5032604;28;20172;-63
2023/10/22 10:42:32;;;;;;;3.85;1.35;;;14.30;99.90;;;;;;5035211;28;20195;-63
2023/10/22 10:44:58;;;;;;;5.55;1.40;;;14.30;99.90;;;;;;5035380;28;20259;-66
2023/10/22 10:47:24;;;;;;;2.72;1.33;;;14.40;99.90;;;;;;5035173;28;20216;-63
2023/10/22 10:50:19;;;;;;;5.20;1.30;;;14.50;99.90;;;;;;5035074;28;20215;-65
2023/10/22 10:52:48;;;;;;;3.65;1.45;;;14.50;99.90;;;;;;5030390;28;20223;-65
2023/10/22 10:55:20;;;;;;;4.15;1.40;;;14.50;99.90;;;;;;5017281;28;20286;-66
2023/10/22 10:57:50;;;;;;;4.32;1.20;;;14.50;99.90;;;;;;5034914;28;20172;-63
2023/10/22 11:00:27;;;;;;;3.15;1.23;;;14.40;99.90;;;;;;5035000;28;20508;-63
2023/10/22 11:02:54;;;;;;;5.18;1.20;;;14.50;99.90;;;;;;5017020;28;20222;-63
2023/10/22 11:05:31;;;;;;;5.85;1.20;;;14.40;99.90;;;;;;5000569;28;20704;-64
2023/10/22 11:07:57;;;;;;;3.60;1.08;;;14.30;99.90;;;;;;5017075;28;20182;-65
2023/10/22 11:10:23;;;;;;;3.42;1.20;;;14.30;99.90;;;;;;5034571;28;20295;-65
2023/10/22 11:12:53;;;;;;;6.03;1.33;;;14.20;99.90;;;;;;5034862;28;20640;-63
2023/10/22 11:15:19;;;;;;;5.45;1.40;;;14.20;99.90;;;;;;5034871;28;20290;-68
2023/10/22 11:17:45;;;;;;;4.60;1.20;;;14.20;99.90;;;;;;5033285;28;20187;-64
2023/10/22 11:20:15;;;;;;;5.32;1.95;;;14.20;99.90;;;;;;5034456;28;20184;-66
2023/10/22 11:22:41;;;;;;;4.32;1.40;;;14.30;99.90;;;;;;5016851;28;20283;-61
2023/10/22 11:25:09;;;;;;;3.58;1.40;;;14.30;99.90;;;;;;5034839;28;20204;-64
2023/10/22 11:27:39;;;;;;;5.20;1.20;;;14.40;99.90;;;;;;5034251;28;20271;-63
2023/10/22 11:30:06;;;;;;;3.35;1.10;;;14.40;99.90;;;;;;5016678;28;20211;-60
2023/10/22 11:32:34;;;;;;;2.65;1.23;;;14.50;99.90;;;;;;5016389;28;20632;-61
2023/10/22 11:35:07;;;;;;;3.30;1.10;;;14.60;99.90;;;;;;5016453;28;20176;-62
2023/10/22 11:37:41;;;;;;;1.85;1.13;;;14.70;99.90;;;;;;5034292;28;20643;-63
2023/10/22 11:40:27;;;;;;;3.47;1.23;;;14.70;99.90;;;;;;5034457;28;20172;-63
2023/10/22 11:42:53;;;;;;;2.95;1.20;;;14.70;99.90;;;;;;5016660;28;20160;-63
2023/10/22 11:45:20;;;;;;;3.08;1.00;;;14.70;99.90;;;;;;5034292;28;20176;-67
2023/10/22 11:47:46;;;;;;;2.95;1.23;;;14.60;99.90;;;;;;5034327;28;20180;-62
2023/10/22 11:50:14;;;;;;;3.85;1.42;;;14.60;99.90;;;;;;5033859;28;20325;-66
2023/10/22 11:52:46;;;;;;;4.35;1.30;;;14.50;99.90;;;;;;5033288;28;20183;-61
2023/10/22 11:55:12;;;;;;;3.50;1.23;;;14.40;99.90;;;;;;5034249;28;20183;-62
2023/10/22 11:57:39;;;;;;;4.10;1.10;;;14.40;99.90;;;;;;5016303;28;20184;-66
2023/10/22 12:00:09;;;;;;;2.83;1.08;;;14.30;99.90;;;;;;5034260;28;20188;-63
2023/10/22 12:02:36;;;;;;;1.85;1.17;;;14.30;99.90;;;;;;5015818;28;20338;-68
2023/10/22 12:05:02;;;;;;;5.18;1.67;;;14.30;99.90;;;;;;5033635;28;20267;-62
2023/10/22 12:07:28;;;;;;;2.42;1.20;;;14.30;99.90;;;;;;5016367;28;20528;-65
2023/10/22 12:09:54;;;;;;;4.55;1.20;;;14.40;99.90;;;;;;5033746;28;20262;-61
2023/10/22 12:12:20;;;;;;;3.55;1.30;;;14.50;99.90;;;;;;5033451;28;20180;-63
2023/10/22 12:14:47;;;;;;;3.30;1.10;;;14.50;99.90;;;;;;5016258;28;20584;-63
2023/10/22 12:17:12;;;;;;;6.88;4.30;;;14.50;99.90;;;;;;5033225;28;20662;-61
2023/10/22 12:19:39;;;;;;;3.05;1.10;;;14.60;99.90;;;;;;5033732;28;20275;-63
2023/10/22 12:22:05;;;;;;;2.10;1.00;;;14.60;99.90;;;;;;5034063;28;20198;-64
2023/10/22 12:24:31;;;;;;;5.22;1.25;;;14.60;99.90;;;;;;5031822;28;20590;-68
2023/10/22 12:26:58;;;;;;;3.58;1.10;;;14.60;99.90;;;;;;5015886;28;20226;-62
2023/10/22 12:29:23;;;;;;;2.58;1.20;;;14.50;99.90;;;;;;5033610;28;20212;-63
2023/10/22 12:31:49;;;;;;;2.95;1.25;;;14.40;99.90;;;;;;5031668;28;20597;-65
2023/10/22 12:34:15;;;;;;;1.67;1.13;;;14.40;99.90;;;;;;5033478;28;20196;-64
2023/10/22 12:36:41;;;;;;;2.58;1.00;;;14.40;99.90;;;;;;5015492;28;20278;-62
2023/10/22 12:39:07;;;;;;;2.88;1.17;;;14.40;99.90;;;;;;5033244;28;20268;-62
2023/10/22 12:41:34;;;;;;;5.05;1.02;;;14.30;99.90;;;;;;5033591;28;20180;-61
2023/10/22 12:44:00;;;;;;;1.67;1.23;;;14.40;99.90;;;;;;5031840;28;20186;-61
2023/10/22 12:46:26;;;;;;;1.58;1.10;;;14.40;99.90;;;;;;5033426;28;20183;-67
2023/10/22 12:48:53;;;;;;;2.33;1.25;;;14.40;99.90;;;;;;5033105;28;20230;-66